sensor_id;sensor_type;location;lat;lon;timestamp;P1;durP1;ratioP1;P2;durP2;ratioP2
47353;SDS011;50657;48.830;2.282;2022-09-11T00:00:59;1.55;;;0.60;;
47353;SDS011;50657;48.830;2.282;2022-09-11T00:03:28;2.22;;;0.85;;
47353;SDS011;50657;48.830;2.282;2022-09-11T00:05:55;1.15;;;0.60;;
47353;SDS011;50657;48.830;2.282;2022-09-11T00:08:28;1.00;;;0.43;;
47353;SDS011;50657;48.830;2.282;2022-09-11T00:11:00;0.75;;;0.50;;
47353;SDS011;50657;48.830;2.282;2022-09-11T00:13:30;1.15;;;0.38;;
47353;SDS011;50657;48.830;2.282;2022-09-11T00:15:57;1.40;;;0.60;;
47353;SDS011;50657;48.830;2.282;2022-09-11T00:18:25;0.70;;;0.70;;
47353;SDS011;50657;48.830;2.282;2022-09-11T00:20:54;5.68;;;0.68;;
47353;SDS011;50657;48.830;2.282;2022-09-11T00:23:23;1.15;;;0.40;;
47353;SDS011;50657;48.830;2.282;2022-09-11T00:25:53;0.50;;;0.40;;
47353;SDS011;50657;48.830;2.282;2022-09-11T00:28:20;1.77;;;0.52;;
47353;SDS011;50657;48.830;2.282;2022-09-11T00:30:55;2.75;;;1.05;;
47353;SDS011;50657;48.830;2.282;2022-09-11T00:33:24;3.28;;;0.40;;
47353;SDS011;50657;48.830;2.282;2022-09-11T00:35:52;0.45;;;0.25;;
47353;SDS011;50657;48.830;2.282;2022-09-11T00:38:22;2.30;;;0.65;;
47353;SDS011;50657;48.830;2.282;2022-09-11T00:40:53;0.57;;;0.30;;
47353;SDS011;50657;48.830;2.282;2022-09-11T00:43:22;1.15;;;0.38;;
47353;SDS011;50657;48.830;2.282;2022-09-11T00:45:52;0.82;;;0.40;;
47353;SDS011;50657;48.830;2.282;2022-09-11T00:48:23;2.35;;;0.30;;
47353;SDS011;50657;48.830;2.282;2022-09-11T00:50:54;0.65;;;0.55;;
47353;SDS011;50657;48.830;2.282;2022-09-11T00:53:22;1.52;;;0.47;;
47353;SDS011;50657;48.830;2.282;2022-09-11T00:55:54;3.05;;;0.43;;
47353;SDS011;50657;48.830;2.282;2022-09-11T00:58:27;3.97;;;0.43;;
47353;SDS011;50657;48.830;2.282;2022-09-11T01:00:57;0.98;;;0.73;;
47353;SDS011;50657;48.830;2.282;2022-09-11T01:03:25;2.13;;;0.40;;
47353;SDS011;50657;48.830;2.282;2022-09-11T01:05:53;3.38;;;0.80;;
47353;SDS011;50657;48.830;2.282;2022-09-11T01:08:22;0.95;;;0.70;;
47353;SDS011;50657;48.830;2.282;2022-09-11T01:10:55;0.40;;;0.40;;
47353;SDS011;50657;48.830;2.282;2022-09-11T01:13:37;1.08;;;0.43;;
47353;SDS011;50657;48.830;2.282;2022-09-11T01:16:12;0.90;;;0.50;;
47353;SDS011;50657;48.830;2.282;2022-09-11T01:18:47;1.60;;;0.30;;
47353;SDS011;50657;48.830;2.282;2022-09-11T01:21:26;1.80;;;0.35;;
47353;SDS011;50657;48.830;2.282;2022-09-11T01:24:27;3.15;;;0.77;;
47353;SDS011;50657;48.830;2.282;2022-09-11T01:29:58;1.73;;;0.57;;
47353;SDS011;50657;48.830;2.282;2022-09-11T01:32:30;1.73;;;0.70;;
47353;SDS011;50657;48.830;2.282;2022-09-11T01:35:05;0.40;;;0.40;;
47353;SDS011;50657;48.830;2.282;2022-09-11T01:37:38;2.53;;;0.55;;
47353;SDS011;50657;48.830;2.282;2022-09-11T01:40:11;1.58;;;0.32;;
47353;SDS011;50657;48.830;2.282;2022-09-11T01:42:48;2.78;;;0.38;;
47353;SDS011;50657;48.830;2.282;2022-09-11T01:45:19;1.15;;;0.55;;
47353;SDS011;50657;48.830;2.282;2022-09-11T01:47:49;5.95;;;0.30;;
47353;SDS011;50657;48.830;2.282;2022-09-11T01:50:17;0.65;;;0.40;;
47353;SDS011;50657;48.830;2.282;2022-09-11T01:52:46;1.73;;;0.45;;
47353;SDS011;50657;48.830;2.282;2022-09-11T01:55:18;0.68;;;0.50;;
47353;SDS011;50657;48.830;2.282;2022-09-11T01:57:51;1.98;;;0.70;;
47353;SDS011;50657;48.830;2.282;2022-09-11T02:00:24;1.40;;;0.70;;
47353;SDS011;50657;48.830;2.282;2022-09-11T02:02:52;1.40;;;0.68;;
47353;SDS011;50657;48.830;2.282;2022-09-11T02:05:26;0.90;;;0.40;;
47353;SDS011;50657;48.830;2.282;2022-09-11T02:08:00;1.05;;;0.57;;
47353;SDS011;50657;48.830;2.282;2022-09-11T02:10:31;0.93;;;0.32;;
47353;SDS011;50657;48.830;2.282;2022-09-11T02:13:04;4.22;;;1.27;;
47353;SDS011;50657;48.830;2.282;2022-09-11T02:15:41;0.90;;;0.70;;
47353;SDS011;50657;48.830;2.282;2022-09-11T02:18:11;2.10;;;0.70;;
47353;SDS011;50657;48.830;2.282;2022-09-11T02:20:43;2.15;;;0.45;;
47353;SDS011;50657;48.830;2.282;2022-09-11T02:23:12;0.70;;;0.70;;
47353;SDS011;50657;48.830;2.282;2022-09-11T02:25:40;2.72;;;0.85;;
47353;SDS011;50657;48.830;2.282;2022-09-11T02:28:08;5.60;;;1.02;;
47353;SDS011;50657;48.830;2.282;2022-09-11T02:30:35;2.35;;;0.70;;
47353;SDS011;50657;48.830;2.282;2022-09-11T02:35:57;2.53;;;0.73;;
47353;SDS011;50657;48.830;2.282;2022-09-11T02:38:42;1.85;;;0.95;;
47353;SDS011;50657;48.830;2.282;2022-09-11T02:41:21;2.22;;;1.17;;
47353;SDS011;50657;48.830;2.282;2022-09-11T02:43:57;1.38;;;0.43;;
47353;SDS011;50657;48.830;2.282;2022-09-11T02:46:43;2.78;;;1.48;;
47353;SDS011;50657;48.830;2.282;2022-09-11T02:49:22;2.05;;;0.80;;
47353;SDS011;50657;48.830;2.282;2022-09-11T02:51:59;1.50;;;0.55;;
47353;SDS011;50657;48.830;2.282;2022-09-11T02:57:01;1.58;;;0.80;;
47353;SDS011;50657;48.830;2.282;2022-09-11T02:59:34;3.47;;;0.73;;
47353;SDS011;50657;48.830;2.282;2022-09-11T03:02:08;0.90;;;0.73;;
47353;SDS011;50657;48.830;2.282;2022-09-11T03:04:39;2.95;;;0.82;;
47353;SDS011;50657;48.830;2.282;2022-09-11T03:07:06;0.70;;;0.70;;
47353;SDS011;50657;48.830;2.282;2022-09-11T03:09:33;2.17;;;0.50;;
47353;SDS011;50657;48.830;2.282;2022-09-11T03:12:06;2.15;;;0.45;;
47353;SDS011;50657;48.830;2.282;2022-09-11T03:14:35;0.73;;;0.73;;
47353;SDS011;50657;48.830;2.282;2022-09-11T03:17:03;1.17;;;0.63;;
47353;SDS011;50657;48.830;2.282;2022-09-11T03:19:31;2.80;;;0.95;;
47353;SDS011;50657;48.830;2.282;2022-09-11T03:22:00;3.72;;;0.57;;
47353;SDS011;50657;48.830;2.282;2022-09-11T03:24:28;1.00;;;0.70;;
47353;SDS011;50657;48.830;2.282;2022-09-11T03:26:55;2.97;;;1.00;;
47353;SDS011;50657;48.830;2.282;2022-09-11T03:29:23;1.08;;;0.57;;
47353;SDS011;50657;48.830;2.282;2022-09-11T03:31:50;1.48;;;0.85;;
47353;SDS011;50657;48.830;2.282;2022-09-11T03:34:17;4.15;;;0.90;;
47353;SDS011;50657;48.830;2.282;2022-09-11T03:36:45;0.85;;;0.73;;
47353;SDS011;50657;48.830;2.282;2022-09-11T03:39:14;0.88;;;0.57;;
47353;SDS011;50657;48.830;2.282;2022-09-11T03:41:41;2.80;;;0.75;;
47353;SDS011;50657;48.830;2.282;2022-09-11T03:44:08;1.25;;;0.52;;
47353;SDS011;50657;48.830;2.282;2022-09-11T03:46:37;1.48;;;1.38;;
47353;SDS011;50657;48.830;2.282;2022-09-11T03:49:04;1.55;;;0.75;;
47353;SDS011;50657;48.830;2.282;2022-09-11T03:51:31;1.08;;;0.70;;
47353;SDS011;50657;48.830;2.282;2022-09-11T03:54:00;0.65;;;0.65;;
47353;SDS011;50657;48.830;2.282;2022-09-11T03:56:30;0.55;;;0.55;;
47353;SDS011;50657;48.830;2.282;2022-09-11T03:58:58;1.42;;;0.40;;
47353;SDS011;50657;48.830;2.282;2022-09-11T04:01:26;2.50;;;0.73;;
47353;SDS011;50657;48.830;2.282;2022-09-11T04:03:54;5.40;;;0.80;;
47353;SDS011;50657;48.830;2.282;2022-09-11T04:06:27;3.83;;;0.60;;
47353;SDS011;50657;48.830;2.282;2022-09-11T04:08:55;0.80;;;0.80;;
47353;SDS011;50657;48.830;2.282;2022-09-11T04:11:22;1.13;;;0.57;;
47353;SDS011;50657;48.830;2.282;2022-09-11T04:13:51;2.67;;;0.70;;
47353;SDS011;50657;48.830;2.282;2022-09-11T04:16:19;3.08;;;0.77;;
47353;SDS011;50657;48.830;2.282;2022-09-11T04:18:50;0.82;;;0.60;;
47353;SDS011;50657;48.830;2.282;2022-09-11T04:21:18;1.42;;;0.35;;
47353;SDS011;50657;48.830;2.282;2022-09-11T04:23:49;2.65;;;0.73;;
47353;SDS011;50657;48.830;2.282;2022-09-11T04:26:18;0.73;;;0.47;;
47353;SDS011;50657;48.830;2.282;2022-09-11T04:28:52;2.53;;;0.55;;
47353;SDS011;50657;48.830;2.282;2022-09-11T04:31:20;0.60;;;0.60;;
47353;SDS011;50657;48.830;2.282;2022-09-11T04:33:47;1.45;;;0.55;;
47353;SDS011;50657;48.830;2.282;2022-09-11T04:36:16;4.10;;;0.30;;
47353;SDS011;50657;48.830;2.282;2022-09-11T04:38:44;1.15;;;0.57;;
47353;SDS011;50657;48.830;2.282;2022-09-11T04:41:13;3.85;;;0.30;;
47353;SDS011;50657;48.830;2.282;2022-09-11T04:43:41;0.90;;;0.50;;
47353;SDS011;50657;48.830;2.282;2022-09-11T04:46:13;0.95;;;0.50;;
47353;SDS011;50657;48.830;2.282;2022-09-11T04:48:42;2.03;;;1.15;;
47353;SDS011;50657;48.830;2.282;2022-09-11T04:51:11;0.82;;;0.82;;
47353;SDS011;50657;48.830;2.282;2022-09-11T04:53:46;0.75;;;0.50;;
47353;SDS011;50657;48.830;2.282;2022-09-11T04:56:15;3.58;;;0.77;;
47353;SDS011;50657;48.830;2.282;2022-09-11T04:58:45;0.70;;;0.50;;
47353;SDS011;50657;48.830;2.282;2022-09-11T05:01:22;2.38;;;0.43;;
47353;SDS011;50657;48.830;2.282;2022-09-11T05:03:53;3.20;;;0.55;;
47353;SDS011;50657;48.830;2.282;2022-09-11T05:06:21;0.60;;;0.20;;
47353;SDS011;50657;48.830;2.282;2022-09-11T05:08:49;2.55;;;0.30;;
47353;SDS011;50657;48.830;2.282;2022-09-11T05:11:17;1.95;;;0.30;;
47353;SDS011;50657;48.830;2.282;2022-09-11T05:13:45;1.77;;;0.40;;
47353;SDS011;50657;48.830;2.282;2022-09-11T05:16:14;2.85;;;1.02;;
47353;SDS011;50657;48.830;2.282;2022-09-11T05:18:48;1.02;;;1.02;;
47353;SDS011;50657;48.830;2.282;2022-09-11T05:21:18;1.55;;;0.40;;
47353;SDS011;50657;48.830;2.282;2022-09-11T05:23:49;5.32;;;0.40;;
47353;SDS011;50657;48.830;2.282;2022-09-11T05:26:18;1.15;;;0.90;;
47353;SDS011;50657;48.830;2.282;2022-09-11T05:28:51;0.73;;;0.70;;
47353;SDS011;50657;48.830;2.282;2022-09-11T05:31:19;0.57;;;0.57;;
47353;SDS011;50657;48.830;2.282;2022-09-11T05:33:49;0.73;;;0.50;;
47353;SDS011;50657;48.830;2.282;2022-09-11T05:36:17;0.57;;;0.35;;
47353;SDS011;50657;48.830;2.282;2022-09-11T05:38:44;2.35;;;0.40;;
47353;SDS011;50657;48.830;2.282;2022-09-11T05:41:12;1.30;;;0.70;;
47353;SDS011;50657;48.830;2.282;2022-09-11T05:43:39;2.40;;;0.47;;
47353;SDS011;50657;48.830;2.282;2022-09-11T05:46:09;0.60;;;0.60;;
47353;SDS011;50657;48.830;2.282;2022-09-11T05:48:38;0.77;;;0.25;;
47353;SDS011;50657;48.830;2.282;2022-09-11T05:51:10;0.85;;;0.52;;
47353;SDS011;50657;48.830;2.282;2022-09-11T05:53:38;1.48;;;0.70;;
47353;SDS011;50657;48.830;2.282;2022-09-11T05:56:07;1.30;;;0.77;;
47353;SDS011;50657;48.830;2.282;2022-09-11T05:58:36;1.77;;;0.40;;
47353;SDS011;50657;48.830;2.282;2022-09-11T06:01:04;1.05;;;0.32;;
47353;SDS011;50657;48.830;2.282;2022-09-11T06:03:34;2.35;;;0.30;;
47353;SDS011;50657;48.830;2.282;2022-09-11T06:06:02;1.65;;;0.70;;
47353;SDS011;50657;48.830;2.282;2022-09-11T06:08:32;0.82;;;0.38;;
47353;SDS011;50657;48.830;2.282;2022-09-11T06:11:00;2.13;;;0.85;;
47353;SDS011;50657;48.830;2.282;2022-09-11T06:13:33;1.52;;;0.45;;
47353;SDS011;50657;48.830;2.282;2022-09-11T06:16:03;2.03;;;0.50;;
47353;SDS011;50657;48.830;2.282;2022-09-11T06:18:32;5.25;;;0.82;;
47353;SDS011;50657;48.830;2.282;2022-09-11T06:21:01;1.90;;;0.65;;
47353;SDS011;50657;48.830;2.282;2022-09-11T06:23:39;2.67;;;0.45;;
47353;SDS011;50657;48.830;2.282;2022-09-11T06:26:06;0.90;;;0.57;;
47353;SDS011;50657;48.830;2.282;2022-09-11T06:28:37;1.00;;;0.45;;
47353;SDS011;50657;48.830;2.282;2022-09-11T06:31:05;1.25;;;0.63;;
47353;SDS011;50657;48.830;2.282;2022-09-11T06:33:34;0.77;;;0.77;;
47353;SDS011;50657;48.830;2.282;2022-09-11T06:36:04;0.80;;;0.70;;
47353;SDS011;50657;48.830;2.282;2022-09-11T06:38:32;0.85;;;0.82;;
47353;SDS011;50657;48.830;2.282;2022-09-11T06:41:02;1.92;;;0.47;;
47353;SDS011;50657;48.830;2.282;2022-09-11T06:43:34;1.80;;;0.50;;
47353;SDS011;50657;48.830;2.282;2022-09-11T06:46:04;2.10;;;1.77;;
47353;SDS011;50657;48.830;2.282;2022-09-11T06:48:33;1.20;;;0.75;;
47353;SDS011;50657;48.830;2.282;2022-09-11T06:51:01;1.42;;;0.52;;
47353;SDS011;50657;48.830;2.282;2022-09-11T06:53:30;0.98;;;0.93;;
47353;SDS011;50657;48.830;2.282;2022-09-11T06:56:05;1.23;;;0.70;;
47353;SDS011;50657;48.830;2.282;2022-09-11T06:58:33;3.58;;;0.60;;
47353;SDS011;50657;48.830;2.282;2022-09-11T07:01:02;2.47;;;1.45;;
47353;SDS011;50657;48.830;2.282;2022-09-11T07:03:31;0.90;;;0.75;;
47353;SDS011;50657;48.830;2.282;2022-09-11T07:06:00;3.17;;;1.23;;
47353;SDS011;50657;48.830;2.282;2022-09-11T07:08:27;0.82;;;0.77;;
47353;SDS011;50657;48.830;2.282;2022-09-11T07:11:00;3.17;;;1.67;;
47353;SDS011;50657;48.830;2.282;2022-09-11T07:13:32;2.20;;;1.40;;
47353;SDS011;50657;48.830;2.282;2022-09-11T07:16:00;2.97;;;0.85;;
47353;SDS011;50657;48.830;2.282;2022-09-11T07:18:31;2.15;;;0.90;;
47353;SDS011;50657;48.830;2.282;2022-09-11T07:21:05;6.00;;;0.65;;
47353;SDS011;50657;48.830;2.282;2022-09-11T07:23:33;3.83;;;1.70;;
47353;SDS011;50657;48.830;2.282;2022-09-11T07:26:01;0.95;;;0.95;;
47353;SDS011;50657;48.830;2.282;2022-09-11T07:28:33;1.80;;;0.77;;
47353;SDS011;50657;48.830;2.282;2022-09-11T07:31:05;1.70;;;1.33;;
47353;SDS011;50657;48.830;2.282;2022-09-11T07:33:36;1.45;;;0.90;;
47353;SDS011;50657;48.830;2.282;2022-09-11T07:36:07;1.98;;;1.02;;
47353;SDS011;50657;48.830;2.282;2022-09-11T07:38:39;3.65;;;1.73;;
47353;SDS011;50657;48.830;2.282;2022-09-11T07:41:08;4.00;;;3.25;;
47353;SDS011;50657;48.830;2.282;2022-09-11T07:43:39;3.47;;;1.65;;
47353;SDS011;50657;48.830;2.282;2022-09-11T07:46:11;5.00;;;2.45;;
47353;SDS011;50657;48.830;2.282;2022-09-11T07:48:39;4.95;;;1.23;;
47353;SDS011;50657;48.830;2.282;2022-09-11T07:51:08;1.52;;;0.95;;
47353;SDS011;50657;48.830;2.282;2022-09-11T07:53:37;3.05;;;0.95;;
47353;SDS011;50657;48.830;2.282;2022-09-11T07:56:06;6.70;;;1.05;;
47353;SDS011;50657;48.830;2.282;2022-09-11T07:58:36;1.95;;;1.05;;
47353;SDS011;50657;48.830;2.282;2022-09-11T08:01:11;2.58;;;1.40;;
47353;SDS011;50657;48.830;2.282;2022-09-11T08:03:40;1.75;;;1.08;;
47353;SDS011;50657;48.830;2.282;2022-09-11T08:06:09;3.22;;;1.45;;
47353;SDS011;50657;48.830;2.282;2022-09-11T08:08:39;1.20;;;1.10;;
47353;SDS011;50657;48.830;2.282;2022-09-11T08:11:08;2.78;;;2.08;;
47353;SDS011;50657;48.830;2.282;2022-09-11T08:13:36;1.08;;;1.00;;
47353;SDS011;50657;48.830;2.282;2022-09-11T08:16:07;1.35;;;1.25;;
47353;SDS011;50657;48.830;2.282;2022-09-11T08:18:35;3.83;;;1.42;;
47353;SDS011;50657;48.830;2.282;2022-09-11T08:21:03;1.58;;;0.55;;
47353;SDS011;50657;48.830;2.282;2022-09-11T08:23:34;5.75;;;1.45;;
47353;SDS011;50657;48.830;2.282;2022-09-11T08:26:05;0.68;;;0.60;;
47353;SDS011;50657;48.830;2.282;2022-09-11T08:28:35;1.15;;;0.73;;
47353;SDS011;50657;48.830;2.282;2022-09-11T08:31:05;4.53;;;1.40;;
47353;SDS011;50657;48.830;2.282;2022-09-11T08:33:33;1.00;;;0.60;;
47353;SDS011;50657;48.830;2.282;2022-09-11T08:36:02;0.70;;;0.63;;
47353;SDS011;50657;48.830;2.282;2022-09-11T08:38:32;3.33;;;1.20;;
47353;SDS011;50657;48.830;2.282;2022-09-11T08:41:07;0.77;;;0.65;;
47353;SDS011;50657;48.830;2.282;2022-09-11T08:43:47;2.08;;;0.63;;
47353;SDS011;50657;48.830;2.282;2022-09-11T08:46:19;2.85;;;0.75;;
47353;SDS011;50657;48.830;2.282;2022-09-11T08:48:51;2.90;;;0.82;;
47353;SDS011;50657;48.830;2.282;2022-09-11T08:51:23;0.82;;;0.65;;
47353;SDS011;50657;48.830;2.282;2022-09-11T08:53:52;2.40;;;0.47;;
47353;SDS011;50657;48.830;2.282;2022-09-11T08:56:22;0.98;;;0.73;;
47353;SDS011;50657;48.830;2.282;2022-09-11T08:58:56;0.40;;;0.35;;
47353;SDS011;50657;48.830;2.282;2022-09-11T09:01:40;4.57;;;0.50;;
47353;SDS011;50657;48.830;2.282;2022-09-11T09:04:28;13.80;;;3.03;;
47353;SDS011;50657;48.830;2.282;2022-09-11T09:07:08;3.35;;;1.00;;
47353;SDS011;50657;48.830;2.282;2022-09-11T09:09:44;7.55;;;1.17;;
47353;SDS011;50657;48.830;2.282;2022-09-11T09:12:22;2.13;;;0.85;;
47353;SDS011;50657;48.830;2.282;2022-09-11T09:15:08;3.33;;;0.90;;
47353;SDS011;50657;48.830;2.282;2022-09-11T09:17:52;0.95;;;0.85;;
47353;SDS011;50657;48.830;2.282;2022-09-11T09:20:28;2.58;;;0.98;;
47353;SDS011;50657;48.830;2.282;2022-09-11T09:22:58;2.75;;;0.40;;
47353;SDS011;50657;48.830;2.282;2022-09-11T09:25:29;2.17;;;0.60;;
47353;SDS011;50657;48.830;2.282;2022-09-11T09:28:02;1.13;;;0.47;;
47353;SDS011;50657;48.830;2.282;2022-09-11T09:30:41;3.00;;;0.68;;
47353;SDS011;50657;48.830;2.282;2022-09-11T09:33:18;4.47;;;0.50;;
47353;SDS011;50657;48.830;2.282;2022-09-11T09:35:52;1.98;;;1.23;;
47353;SDS011;50657;48.830;2.282;2022-09-11T09:38:25;2.75;;;0.60;;
47353;SDS011;50657;48.830;2.282;2022-09-11T09:41:00;5.47;;;0.60;;
47353;SDS011;50657;48.830;2.282;2022-09-11T09:43:41;7.28;;;1.35;;
47353;SDS011;50657;48.830;2.282;2022-09-11T09:46:17;8.45;;;0.47;;
47353;SDS011;50657;48.830;2.282;2022-09-11T09:48:53;1.10;;;0.40;;
47353;SDS011;50657;48.830;2.282;2022-09-11T09:51:21;4.03;;;0.63;;
47353;SDS011;50657;48.830;2.282;2022-09-11T09:53:49;0.80;;;0.20;;
47353;SDS011;50657;48.830;2.282;2022-09-11T09:56:20;2.28;;;0.10;;
47353;SDS011;50657;48.830;2.282;2022-09-11T09:58:51;0.90;;;0.20;;
47353;SDS011;50657;48.830;2.282;2022-09-11T10:04:16;1.83;;;0.50;;
47353;SDS011;50657;48.830;2.282;2022-09-11T10:06:46;2.75;;;0.77;;
47353;SDS011;50657;48.830;2.282;2022-09-11T10:09:19;2.85;;;0.55;;
47353;SDS011;50657;48.830;2.282;2022-09-11T10:11:56;2.97;;;0.20;;
47353;SDS011;50657;48.830;2.282;2022-09-11T10:14:27;0.88;;;0.35;;
47353;SDS011;50657;48.830;2.282;2022-09-11T10:16:57;20.33;;;1.98;;
47353;SDS011;50657;48.830;2.282;2022-09-11T10:19:35;2.85;;;0.30;;
47353;SDS011;50657;48.830;2.282;2022-09-11T10:22:19;3.50;;;0.50;;
47353;SDS011;50657;48.830;2.282;2022-09-11T10:25:01;2.33;;;0.20;;
47353;SDS011;50657;48.830;2.282;2022-09-11T10:27:38;2.30;;;0.40;;
47353;SDS011;50657;48.830;2.282;2022-09-11T10:30:24;1.75;;;0.47;;
47353;SDS011;50657;48.830;2.282;2022-09-11T10:32:54;1.15;;;0.50;;
47353;SDS011;50657;48.830;2.282;2022-09-11T10:35:24;2.92;;;0.73;;
47353;SDS011;50657;48.830;2.282;2022-09-11T10:37:59;1.35;;;0.60;;
47353;SDS011;50657;48.830;2.282;2022-09-11T10:40:32;3.75;;;1.10;;
47353;SDS011;50657;48.830;2.282;2022-09-11T10:42:59;2.05;;;0.20;;
47353;SDS011;50657;48.830;2.282;2022-09-11T10:45:27;1.27;;;0.20;;
47353;SDS011;50657;48.830;2.282;2022-09-11T10:47:56;2.17;;;0.20;;
47353;SDS011;50657;48.830;2.282;2022-09-11T10:50:42;0.63;;;0.10;;
47353;SDS011;50657;48.830;2.282;2022-09-11T10:53:14;2.17;;;0.30;;
47353;SDS011;50657;48.830;2.282;2022-09-11T10:55:47;0.55;;;0.10;;
47353;SDS011;50657;48.830;2.282;2022-09-11T10:58:23;0.20;;;0.10;;
47353;SDS011;50657;48.830;2.282;2022-09-11T11:00:55;0.75;;;0.28;;
47353;SDS011;50657;48.830;2.282;2022-09-11T11:03:23;1.05;;;0.10;;
47353;SDS011;50657;48.830;2.282;2022-09-11T11:05:55;1.15;;;0.30;;
47353;SDS011;50657;48.830;2.282;2022-09-11T11:08:45;0.08;;;0.08;;
47353;SDS011;50657;48.830;2.282;2022-09-11T11:11:28;0.17;;;0.10;;
47353;SDS011;50657;48.830;2.282;2022-09-11T11:14:09;1.23;;;0.20;;
47353;SDS011;50657;48.830;2.282;2022-09-11T11:16:58;1.83;;;0.52;;
47353;SDS011;50657;48.830;2.282;2022-09-11T11:19:35;0.10;;;0.10;;
47353;SDS011;50657;48.830;2.282;2022-09-11T11:22:20;1.85;;;0.40;;
47353;SDS011;50657;48.830;2.282;2022-09-11T11:25:02;1.20;;;0.10;;
47353;SDS011;50657;48.830;2.282;2022-09-11T11:27:48;1.30;;;0.10;;
47353;SDS011;50657;48.830;2.282;2022-09-11T11:30:28;1.35;;;0.10;;
47353;SDS011;50657;48.830;2.282;2022-09-11T11:36:00;1.45;;;0.13;;
47353;SDS011;50657;48.830;2.282;2022-09-11T11:38:33;0.20;;;0.20;;
47353;SDS011;50657;48.830;2.282;2022-09-11T11:41:06;0.10;;;0.10;;
47353;SDS011;50657;48.830;2.282;2022-09-11T11:43:41;0.38;;;0.10;;
47353;SDS011;50657;48.830;2.282;2022-09-11T11:46:11;0.50;;;0.20;;
47353;SDS011;50657;48.830;2.282;2022-09-11T11:48:44;1.15;;;0.32;;
47353;SDS011;50657;48.830;2.282;2022-09-11T11:51:16;0.10;;;0.10;;
47353;SDS011;50657;48.830;2.282;2022-09-11T11:53:47;0.28;;;0.10;;
47353;SDS011;50657;48.830;2.282;2022-09-11T11:56:23;0.30;;;0.10;;
47353;SDS011;50657;48.830;2.282;2022-09-11T11:58:59;0.10;;;0.10;;
47353;SDS011;50657;48.830;2.282;2022-09-11T12:01:33;0.28;;;0.10;;
47353;SDS011;50657;48.830;2.282;2022-09-11T12:04:08;0.25;;;0.10;;
47353;SDS011;50657;48.830;2.282;2022-09-11T12:06:41;0.17;;;0.10;;
47353;SDS011;50657;48.830;2.282;2022-09-11T12:09:10;0.10;;;0.10;;
47353;SDS011;50657;48.830;2.282;2022-09-11T12:11:42;0.47;;;0.10;;
47353;SDS011;50657;48.830;2.282;2022-09-11T12:14:22;0.32;;;0.10;;
47353;SDS011;50657;48.830;2.282;2022-09-11T12:16:52;0.10;;;0.10;;
47353;SDS011;50657;48.830;2.282;2022-09-11T12:19:21;0.10;;;0.10;;
47353;SDS011;50657;48.830;2.282;2022-09-11T12:22:03;0.25;;;0.20;;
47353;SDS011;50657;48.830;2.282;2022-09-11T12:27:31;0.95;;;0.10;;
47353;SDS011;50657;48.830;2.282;2022-09-11T12:30:20;0.13;;;0.10;;
47353;SDS011;50657;48.830;2.282;2022-09-11T12:32:49;0.30;;;0.00;;
47353;SDS011;50657;48.830;2.282;2022-09-11T12:35:22;1.52;;;0.40;;
47353;SDS011;50657;48.830;2.282;2022-09-11T12:40:24;0.20;;;0.10;;
47353;SDS011;50657;48.830;2.282;2022-09-11T12:42:58;0.40;;;0.10;;
47353;SDS011;50657;48.830;2.282;2022-09-11T12:45:42;1.42;;;0.05;;
47353;SDS011;50657;48.830;2.282;2022-09-11T12:48:12;0.05;;;0.00;;
47353;SDS011;50657;48.830;2.282;2022-09-11T12:50:47;0.10;;;0.10;;
47353;SDS011;50657;48.830;2.282;2022-09-11T12:53:16;0.10;;;0.10;;
47353;SDS011;50657;48.830;2.282;2022-09-11T12:55:56;0.03;;;0.03;;
47353;SDS011;50657;48.830;2.282;2022-09-11T12:58:30;0.10;;;0.00;;
47353;SDS011;50657;48.830;2.282;2022-09-11T13:01:12;0.32;;;0.10;;
47353;SDS011;50657;48.830;2.282;2022-09-11T13:03:47;0.20;;;0.05;;
47353;SDS011;50657;48.830;2.282;2022-09-11T13:08:47;0.73;;;0.00;;
47353;SDS011;50657;48.830;2.282;2022-09-11T13:11:39;0.20;;;0.10;;
47353;SDS011;50657;48.830;2.282;2022-09-11T13:17:12;0.30;;;0.10;;
47353;SDS011;50657;48.830;2.282;2022-09-11T13:19:41;0.00;;;0.00;;
47353;SDS011;50657;48.830;2.282;2022-09-11T13:22:21;1.33;;;0.15;;
47353;SDS011;50657;48.830;2.282;2022-09-11T13:25:03;0.38;;;0.08;;
47353;SDS011;50657;48.830;2.282;2022-09-11T13:27:32;1.77;;;0.00;;
47353;SDS011;50657;48.830;2.282;2022-09-11T13:30:02;0.28;;;0.00;;
47353;SDS011;50657;48.830;2.282;2022-09-11T13:32:31;0.20;;;0.00;;
47353;SDS011;50657;48.830;2.282;2022-09-11T13:35:00;0.10;;;0.08;;
47353;SDS011;50657;48.830;2.282;2022-09-11T13:37:34;0.00;;;0.00;;
47353;SDS011;50657;48.830;2.282;2022-09-11T13:40:04;0.00;;;0.00;;
47353;SDS011;50657;48.830;2.282;2022-09-11T13:42:42;0.80;;;0.10;;
47353;SDS011;50657;48.830;2.282;2022-09-11T13:45:10;0.70;;;0.10;;
47353;SDS011;50657;48.830;2.282;2022-09-11T13:47:42;0.05;;;0.00;;
47353;SDS011;50657;48.830;2.282;2022-09-11T13:50:10;1.67;;;0.10;;
47353;SDS011;50657;48.830;2.282;2022-09-11T13:52:39;0.10;;;0.00;;
47353;SDS011;50657;48.830;2.282;2022-09-11T13:55:08;0.63;;;0.10;;
47353;SDS011;50657;48.830;2.282;2022-09-11T13:57:50;0.57;;;0.00;;
47353;SDS011;50657;48.830;2.282;2022-09-11T14:00:38;0.00;;;0.00;;
47353;SDS011;50657;48.830;2.282;2022-09-11T14:03:13;0.10;;;0.00;;
47353;SDS011;50657;48.830;2.282;2022-09-11T14:05:48;0.38;;;0.00;;
47353;SDS011;50657;48.830;2.282;2022-09-11T14:08:19;0.08;;;0.00;;
47353;SDS011;50657;48.830;2.282;2022-09-11T14:10:51;0.00;;;0.00;;
47353;SDS011;50657;48.830;2.282;2022-09-11T14:13:23;0.03;;;0.00;;
47353;SDS011;50657;48.830;2.282;2022-09-11T14:15:58;0.55;;;0.00;;
47353;SDS011;50657;48.830;2.282;2022-09-11T14:18:29;0.03;;;0.00;;
47353;SDS011;50657;48.830;2.282;2022-09-11T14:21:00;0.00;;;0.00;;
47353;SDS011;50657;48.830;2.282;2022-09-11T14:23:30;0.22;;;0.00;;
47353;SDS011;50657;48.830;2.282;2022-09-11T14:26:04;0.00;;;0.00;;
47353;SDS011;50657;48.830;2.282;2022-09-11T14:28:35;0.38;;;0.00;;
47353;SDS011;50657;48.830;2.282;2022-09-11T14:31:09;0.00;;;0.00;;
47353;SDS011;50657;48.830;2.282;2022-09-11T14:33:38;0.40;;;0.00;;
47353;SDS011;50657;48.830;2.282;2022-09-11T14:36:09;0.75;;;0.10;;
47353;SDS011;50657;48.830;2.282;2022-09-11T14:38:43;0.20;;;0.00;;
47353;SDS011;50657;48.830;2.282;2022-09-11T14:41:11;0.38;;;0.00;;
47353;SDS011;50657;48.830;2.282;2022-09-11T14:43:40;0.10;;;0.00;;
47353;SDS011;50657;48.830;2.282;2022-09-11T14:46:07;0.00;;;0.00;;
47353;SDS011;50657;48.830;2.282;2022-09-11T14:48:34;0.77;;;0.00;;
47353;SDS011;50657;48.830;2.282;2022-09-11T14:51:01;0.77;;;0.00;;
47353;SDS011;50657;48.830;2.282;2022-09-11T14:53:32;0.00;;;0.00;;
47353;SDS011;50657;48.830;2.282;2022-09-11T14:56:00;0.47;;;0.00;;
47353;SDS011;50657;48.830;2.282;2022-09-11T14:58:28;0.10;;;0.00;;
47353;SDS011;50657;48.830;2.282;2022-09-11T15:00:57;0.90;;;0.00;;
47353;SDS011;50657;48.830;2.282;2022-09-11T15:03:24;1.25;;;0.00;;
47353;SDS011;50657;48.830;2.282;2022-09-11T15:05:53;0.00;;;0.00;;
47353;SDS011;50657;48.830;2.282;2022-09-11T15:08:21;0.10;;;0.00;;
47353;SDS011;50657;48.830;2.282;2022-09-11T15:10:49;0.00;;;0.00;;
47353;SDS011;50657;48.830;2.282;2022-09-11T15:13:17;0.10;;;0.00;;
47353;SDS011;50657;48.830;2.282;2022-09-11T15:15:45;0.00;;;0.00;;
47353;SDS011;50657;48.830;2.282;2022-09-11T15:18:14;0.10;;;0.10;;
47353;SDS011;50657;48.830;2.282;2022-09-11T15:20:42;0.00;;;0.00;;
47353;SDS011;50657;48.830;2.282;2022-09-11T15:23:09;0.65;;;0.00;;
47353;SDS011;50657;48.830;2.282;2022-09-11T15:25:36;0.30;;;0.00;;
47353;SDS011;50657;48.830;2.282;2022-09-11T15:28:03;0.85;;;0.10;;
47353;SDS011;50657;48.830;2.282;2022-09-11T15:30:34;0.00;;;0.00;;
47353;SDS011;50657;48.830;2.282;2022-09-11T15:33:01;0.30;;;0.00;;
47353;SDS011;50657;48.830;2.282;2022-09-11T15:35:30;0.10;;;0.00;;
47353;SDS011;50657;48.830;2.282;2022-09-11T15:37:57;0.17;;;0.00;;
47353;SDS011;50657;48.830;2.282;2022-09-11T15:40:24;0.00;;;0.00;;